Belfast, Tennessee
Current Conditions -  °F | °C
As of 4:15 PM on Monday 20 Oct 2014 (Local Time) from KSYI Reporting Station
Clear Clear  
Wind Chill: 70°   Ceiling: Unl
Heat Index: 70°   Visibility: 10mi
Dew Point: 52°   Wind: 7mph
Humidity: 53%   Direction: 230°SW
Pressure: 30.01"   Gusts: NA
Location:  35.42°N, 86.7°W
Report Text: KSYI 202115Z AUTO 23006KT 10SM CLR 21/11 A3001 RMK
Loading
Personal Weather Stations






























Interactive Weather Map
Tropical Storm Tracking
New forecast layout! Learn more

10-Day Weather Forecast

Advertisements
Track Severe Weather on mobile